Time;durP1;ratioP1;P1;durP2;ratioP2;P2;SDS_P1;SDS_P2;PMS_P1;PMS_P2;Temp;Humidity;BMP_temperature;BMP_pressure;BME280_temperature;BME280_humidity;BME280_pressure;Samples;Min_cycle;Max_cycle;Signal;HPM_P1;HPM_P2
2023/09/11 00:01:11;;;;;;;7.88;5.22;;;16.90;1.00;;;;;;5179466;28;20036;-62
2023/09/11 00:03:42;;;;;;;6.78;5.07;;;16.90;1.00;;;;;;5189874;28;20049;-63
2023/09/11 00:06:16;;;;;;;7.50;5.32;;;16.90;1.00;;;;;;5185073;28;20081;-63
2023/09/11 00:08:49;;;;;;;5.53;4.25;;;16.80;1.00;;;;;;5186251;28;20046;-63
2023/09/11 00:11:20;;;;;;;6.13;4.38;;;16.80;1.00;;;;;;5172267;28;20038;-63
2023/09/11 00:13:51;;;;;;;5.43;4.35;;;16.70;1.00;;;;;;5186201;28;20025;-65
2023/09/11 00:16:23;;;;;;;8.18;5.03;;;16.60;1.00;;;;;;5164023;28;20055;-65
2023/09/11 00:21:47;;;;;;;7.40;5.22;;;16.60;1.00;;;;;;5184280;28;20029;-63
2023/09/11 00:24:18;;;;;;;8.73;4.70;;;16.50;1.00;;;;;;5179853;28;20036;-63
2023/09/11 00:26:49;;;;;;;11.50;4.97;;;16.50;1.00;;;;;;5179489;28;20646;-64
2023/09/11 00:29:20;;;;;;;9.55;5.25;;;16.40;1.00;;;;;;5215012;28;20017;-64
2023/09/11 00:31:57;;;;;;;5.55;4.45;;;16.40;27.60;;;;;;5198502;28;20037;-64
2023/09/11 00:34:29;;;;;;;5.28;4.78;;;16.40;9.60;;;;;;5179936;28;20048;-64
2023/09/11 00:37:01;;;;;;;7.00;5.43;;;16.30;74.10;;;;;;5182405;28;20041;-63
2023/09/11 00:39:32;;;;;;;8.27;5.18;;;16.20;99.90;;;;;;5182271;28;20055;-65
2023/09/11 00:42:06;;;;;;;7.55;5.78;;;16.10;99.90;;;;;;5167570;28;20039;-62
2023/09/11 00:44:42;;;;;;;7.53;5.10;;;16.10;99.90;;;;;;5182755;28;20032;-64
2023/09/11 00:47:16;;;;;;;6.30;5.63;;;16.10;99.90;;;;;;5197773;28;20040;-63
2023/09/11 00:49:50;;;;;;;5.82;5.20;;;16.10;99.90;;;;;;5183924;28;20033;-64
2023/09/11 00:52:24;;;;;;;5.88;4.95;;;16.10;99.90;;;;;;5181246;28;20044;-63
2023/09/11 00:54:56;;;;;;;7.10;5.07;;;16.10;99.90;;;;;;5199022;28;20029;-63
2023/09/11 00:57:30;;;;;;;9.13;5.70;;;16.10;99.90;;;;;;5198472;28;20045;-64
2023/09/11 01:00:04;;;;;;;6.70;5.07;;;16.10;99.90;;;;;;5202952;28;20067;-62
2023/09/11 01:02:36;;;;;;;8.52;5.88;;;16.10;99.90;;;;;;5248551;22;20051;-93
2023/09/11 01:05:08;;;;;;;6.72;5.53;;;16.10;99.90;;;;;;5206325;28;20033;-92
2023/09/11 01:07:40;;;;;;;7.22;5.43;;;16.10;99.90;;;;;;5208278;28;20035;-94
2023/09/11 01:10:11;;;;;;;7.43;5.32;;;16.10;99.90;;;;;;5207675;28;20033;-94
2023/09/11 01:12:42;;;;;;;7.13;4.97;;;16.10;99.90;;;;;;5206637;28;20035;-92
2023/09/11 01:15:16;;;;;;;6.00;4.78;;;16.10;99.90;;;;;;5207078;28;20349;-92
2023/09/11 01:18:10;;;;;;;7.97;5.15;;;16.00;99.90;;;;;;5206017;28;20039;-93
2023/09/11 01:21:25;;;;;;;7.53;5.43;;;15.90;99.90;;;;;;5207653;28;20025;-92
2023/09/11 01:24:38;;;;;;;6.00;5.03;;;15.90;99.90;;;;;;5206529;28;20322;-93
2023/09/11 01:27:19;;;;;;;5.65;4.75;;;15.80;26.50;;;;;;5201589;28;20031;-93
2023/09/11 01:29:52;;;;;;;7.75;5.13;;;15.80;99.90;;;;;;5206564;28;20035;-93
2023/09/11 01:32:25;;;;;;;7.20;4.72;;;15.80;99.90;;;;;;5206718;28;20035;-93
2023/09/11 01:34:56;;;;;;;7.70;6.10;;;15.80;99.90;;;;;;5206896;28;20039;-95
2023/09/11 01:37:30;;;;;;;9.27;6.15;;;15.80;99.90;;;;;;5206514;28;20039;-93
2023/09/11 01:40:01;;;;;;;8.40;5.85;;;15.80;99.90;;;;;;5207214;28;20028;-92
2023/09/11 01:42:48;;;;;;;6.35;4.80;;;15.70;99.90;;;;;;5212528;28;20029;-94
2023/09/11 01:45:23;;;;;;;6.88;5.43;;;15.70;99.90;;;;;;5206391;28;20047;-93
2023/09/11 01:47:54;;;;;;;6.60;5.55;;;15.70;99.90;;;;;;5205782;28;20033;-92
2023/09/11 01:50:30;;;;;;;6.57;5.88;;;15.60;99.90;;;;;;5206372;28;20218;-91
2023/09/11 01:53:04;;;;;;;7.45;5.05;;;15.60;99.90;;;;;;5206276;28;20031;-92
2023/09/11 01:55:36;;;;;;;6.68;5.50;;;15.60;99.90;;;;;;5206104;28;20043;-92
2023/09/11 01:58:12;;;;;;;6.80;5.22;;;15.60;99.90;;;;;;5206198;28;20340;-92
2023/09/11 02:00:43;;;;;;;6.47;5.28;;;15.60;99.90;;;;;;5206185;28;20049;-93
2023/09/11 02:03:40;;;;;;;6.07;5.38;;;15.50;99.90;;;;;;5232155;28;20027;-93
2023/09/11 02:06:11;;;;;;;6.00;4.95;;;15.50;99.90;;;;;;5207017;28;20311;-92
2023/09/11 02:08:43;;;;;;;6.85;4.95;;;15.60;99.90;;;;;;5208326;28;20031;-93
2023/09/11 02:11:14;;;;;;;8.90;4.93;;;15.60;99.90;;;;;;5206761;28;20041;-92
2023/09/11 02:13:45;;;;;;;6.85;5.25;;;15.60;99.90;;;;;;5205549;28;20039;-94
2023/09/11 02:16:17;;;;;;;7.57;5.55;;;15.50;99.90;;;;;;5205574;28;20218;-93
2023/09/11 02:18:48;;;;;;;7.32;5.60;;;15.40;99.90;;;;;;5205606;28;20348;-92
2023/09/11 02:21:21;;;;;;;8.45;5.80;;;15.40;99.90;;;;;;5221421;28;20033;-94
2023/09/11 02:23:55;;;;;;;8.68;5.43;;;15.40;99.90;;;;;;5205044;28;20035;-92
2023/09/11 02:29:54;;;;;;;7.25;5.43;;;15.20;99.90;;;;;;5221837;28;20021;-94
2023/09/11 02:32:27;;;;;;;6.78;5.85;;;15.10;99.90;;;;;;5205256;28;20025;-93
2023/09/11 02:38:27;;;;;;;7.30;5.78;;;15.00;99.90;;;;;;5225743;28;20029;-96
2023/09/11 02:41:02;;;;;;;9.82;6.65;;;15.00;99.90;;;;;;5231645;28;20035;-95
2023/09/11 02:43:37;;;;;;;7.75;5.95;;;14.90;99.90;;;;;;5219690;22;20060;-62
2023/09/11 02:46:08;;;;;;;8.73;6.25;;;15.00;99.90;;;;;;5173360;28;20056;-62
2023/09/11 02:48:49;;;;;;;7.07;6.25;;;15.00;99.90;;;;;;5192557;28;20041;-63
2023/09/11 02:51:22;;;;;;;8.73;6.30;;;14.90;99.90;;;;;;5177238;28;20040;-64
2023/09/11 02:53:54;;;;;;;7.63;6.38;;;14.80;99.90;;;;;;5171334;28;20044;-63
2023/09/11 02:56:26;;;;;;;9.30;6.85;;;14.80;99.90;;;;;;5168481;28;20041;-63
2023/09/11 02:58:57;;;;;;;7.80;6.38;;;14.80;99.90;;;;;;5173273;28;20034;-61
2023/09/11 03:01:29;;;;;;;7.75;6.10;;;14.80;99.90;;;;;;5174884;28;20025;-62
2023/09/11 03:04:02;;;;;;;7.93;6.28;;;14.90;99.90;;;;;;5175408;28;20042;-62
2023/09/11 03:06:36;;;;;;;6.95;6.25;;;14.90;99.90;;;;;;5178432;28;20030;-63
2023/09/11 03:09:08;;;;;;;10.07;6.53;;;14.90;99.90;;;;;;5177078;28;20037;-62
2023/09/11 03:11:39;;;;;;;8.05;6.40;;;15.00;99.90;;;;;;5178593;28;20057;-64
2023/09/11 03:14:11;;;;;;;7.60;6.20;;;14.90;99.90;;;;;;5177972;28;20032;-63
2023/09/11 03:16:43;;;;;;;6.78;5.72;;;14.90;99.90;;;;;;5179199;28;20025;-61
2023/09/11 03:19:14;;;;;;;7.32;5.95;;;15.00;99.90;;;;;;5181112;28;20108;-62
2023/09/11 03:21:54;;;;;;;7.35;5.97;;;15.00;99.90;;;;;;5164340;28;20041;-65
2023/09/11 03:24:31;;;;;;;6.78;5.47;;;14.90;99.90;;;;;;5164318;28;20038;-62
2023/09/11 03:27:02;;;;;;;8.40;5.85;;;14.90;99.90;;;;;;5181109;28;20037;-64
2023/09/11 03:29:33;;;;;;;7.63;6.30;;;14.90;99.90;;;;;;5181239;28;20318;-64
2023/09/11 03:32:05;;;;;;;10.05;6.22;;;14.90;99.90;;;;;;5178244;28;20036;-64
2023/09/11 03:34:36;;;;;;;7.40;5.82;;;14.80;99.90;;;;;;5179412;28;20230;-63
2023/09/11 03:37:13;;;;;;;9.18;6.65;;;14.80;99.90;;;;;;5160385;28;20053;-63
2023/09/11 03:39:44;;;;;;;6.78;5.57;;;14.80;99.90;;;;;;5158213;28;20043;-64
2023/09/11 03:42:15;;;;;;;7.68;5.78;;;14.70;99.90;;;;;;5163172;28;20038;-64
2023/09/11 03:44:49;;;;;;;8.45;6.13;;;14.70;99.90;;;;;;5156905;28;20050;-62
2023/09/11 03:47:20;;;;;;;7.30;6.18;;;14.70;99.90;;;;;;5179066;28;20030;-64
2023/09/11 03:49:51;;;;;;;7.75;6.53;;;14.70;99.90;;;;;;5180583;28;20040;-66
2023/09/11 03:52:23;;;;;;;9.05;7.07;;;14.70;99.90;;;;;;5162953;28;20058;-63
2023/09/11 03:54:54;;;;;;;9.30;6.32;;;14.60;99.90;;;;;;5146715;28;20319;-65
2023/09/11 03:57:25;;;;;;;10.07;6.53;;;14.60;99.90;;;;;;5180094;28;20024;-63
2023/09/11 04:00:06;;;;;;;8.73;6.65;;;14.60;99.90;;;;;;5178937;28;20034;-63
2023/09/11 04:02:38;;;;;;;8.88;6.25;;;14.50;99.90;;;;;;5161083;28;20034;-64
2023/09/11 04:05:09;;;;;;;10.73;6.38;;;14.50;99.90;;;;;;5164357;28;20513;-63
2023/09/11 04:07:41;;;;;;;7.85;6.38;;;14.60;99.90;;;;;;5180237;28;20038;-62
2023/09/11 04:10:13;;;;;;;9.27;6.47;;;14.60;99.90;;;;;;5179910;28;20564;-63
2023/09/11 04:12:45;;;;;;;8.38;6.75;;;14.60;99.90;;;;;;5181001;28;20040;-62
2023/09/11 04:15:18;;;;;;;10.57;6.93;;;14.50;99.90;;;;;;5193693;28;20026;-64
2023/09/11 04:17:50;;;;;;;8.48;6.32;;;14.50;99.90;;;;;;5178893;28;20034;-64
2023/09/11 04:20:24;;;;;;;8.43;6.50;;;14.50;99.90;;;;;;5179369;28;20033;-62
2023/09/11 04:22:55;;;;;;;8.65;6.78;;;14.50;99.90;;;;;;5179367;28;20369;-63
2023/09/11 04:25:29;;;;;;;8.18;6.78;;;14.60;99.90;;;;;;5162582;28;20121;-65
2023/09/11 04:28:00;;;;;;;;;;;14.60;99.90;;;;;;5178100;28;20042;-64
2023/09/11 04:30:32;;;;;;;8.27;5.93;;;14.70;99.90;;;;;;5178997;28;19932;-64
2023/09/11 04:33:06;;;;;;;10.35;6.40;;;14.60;99.90;;;;;;5181210;28;20041;-61
2023/09/11 04:35:37;;;;;;;8.60;6.93;;;14.60;99.90;;;;;;5160323;28;20048;-61
2023/09/11 04:38:08;;;;;;;8.35;7.03;;;14.70;99.90;;;;;;5143680;28;20384;-62
2023/09/11 04:40:39;;;;;;;11.48;7.63;;;14.70;99.90;;;;;;5163197;28;20337;-62
2023/09/11 04:43:10;;;;;;;10.60;6.97;;;14.80;99.90;;;;;;5180449;28;20048;-62
2023/09/11 04:45:41;;;;;;;8.30;6.20;;;14.80;99.90;;;;;;5160135;28;20352;-64
2023/09/11 04:48:15;;;;;;;9.20;6.35;;;14.90;99.90;;;;;;5180768;28;20036;-62
2023/09/11 04:50:46;;;;;;;8.77;6.67;;;14.90;99.90;;;;;;5163375;28;20040;-63
2023/09/11 04:53:20;;;;;;;9.38;6.53;;;15.10;99.90;;;;;;5178932;28;20326;-64
2023/09/11 04:55:56;;;;;;;10.38;7.18;;;15.20;99.90;;;;;;5161485;28;20471;-64
2023/09/11 04:58:29;;;;;;;8.95;6.55;;;15.30;99.90;;;;;;5161733;28;20029;-65
2023/09/11 05:01:03;;;;;;;9.68;6.25;;;15.40;99.90;;;;;;5166280;28;20046;-65
2023/09/11 05:03:34;;;;;;;9.10;6.40;;;15.60;99.90;;;;;;5177159;28;20042;-64
2023/09/11 05:06:08;;;;;;;10.25;6.80;;;15.80;99.90;;;;;;5195765;28;20049;-64
2023/09/11 05:08:43;;;;;;;8.43;6.38;;;16.00;99.90;;;;;;5191685;28;20042;-61
2023/09/11 05:11:17;;;;;;;9.60;6.70;;;16.30;99.90;;;;;;5168239;28;20338;-64
2023/09/11 05:13:48;;;;;;;9.77;6.55;;;16.60;99.90;;;;;;5177931;28;20040;-62
2023/09/11 05:16:19;;;;;;;10.75;6.28;;;16.90;99.90;;;;;;5176495;28;20022;-62
2023/09/11 05:18:53;;;;;;;7.35;5.78;;;17.20;1.00;;;;;;5180812;28;20040;-63
2023/09/11 05:21:25;;;;;;;10.30;5.63;;;17.30;1.00;;;;;;5178223;28;20041;-64
2023/09/11 05:23:57;;;;;;;9.48;6.30;;;17.50;1.00;;;;;;5178668;28;20026;-67
2023/09/11 05:26:28;;;;;;;8.80;5.97;;;17.70;1.00;;;;;;5179362;28;20052;-63
2023/09/11 05:28:59;;;;;;;7.85;6.53;;;17.90;1.00;;;;;;5162866;28;20048;-64
2023/09/11 05:31:35;;;;;;;6.57;5.53;;;17.90;1.00;;;;;;5175609;28;20254;-64
2023/09/11 05:34:08;;;;;;;9.40;6.45;;;18.10;1.00;;;;;;5180225;28;20030;-63
2023/09/11 05:36:41;;;;;;;8.55;5.35;;;18.30;1.00;;;;;;5178480;28;20040;-64
2023/09/11 05:39:13;;;;;;;7.20;5.60;;;18.60;1.00;;;;;;5178604;28;20041;-63
2023/09/11 05:41:44;;;;;;;6.80;5.55;;;18.90;1.00;;;;;;5177252;28;20029;-63
2023/09/11 05:44:19;;;;;;;6.60;5.75;;;19.10;99.90;;;;;;5193068;28;20371;-64
2023/09/11 05:46:51;;;;;;;7.47;5.65;;;19.30;99.90;;;;;;5175581;28;20033;-66
2023/09/11 05:49:22;;;;;;;11.75;5.70;;;19.50;99.90;;;;;;5177409;28;20025;-66
2023/09/11 05:51:53;;;;;;;8.60;4.90;;;19.70;57.80;;;;;;5179972;28;20314;-62
2023/09/11 05:54:24;;;;;;;6.30;4.82;;;19.90;1.00;;;;;;5178435;28;20044;-63
2023/09/11 05:56:55;;;;;;;7.32;5.10;;;20.10;1.00;;;;;;5176829;28;20037;-65
2023/09/11 05:59:29;;;;;;;6.80;5.18;;;20.40;1.00;;;;;;5159943;28;20117;-63
2023/09/11 06:02:00;;;;;;;6.63;5.00;;;20.60;1.00;;;;;;5158711;28;20044;-63
2023/09/11 06:04:32;;;;;;;6.18;4.88;;;20.70;99.90;;;;;;5159374;28;20251;-65
2023/09/11 06:07:04;;;;;;;7.93;4.85;;;20.90;99.90;;;;;;5176867;28;20536;-65
2023/09/11 06:09:38;;;;;;;5.55;4.45;;;21.00;99.90;;;;;;5160461;28;20034;-63
2023/09/11 06:12:11;;;;;;;6.88;4.63;;;21.20;99.90;;;;;;5177482;28;20037;-66
2023/09/11 06:14:43;;;;;;;6.50;4.90;;;21.40;24.50;;;;;;5160119;28;20330;-65
2023/09/11 06:17:14;;;;;;;6.68;4.75;;;21.60;1.00;;;;;;5175713;28;20546;-65
2023/09/11 06:19:45;;;;;;;10.13;5.60;;;21.80;1.00;;;;;;5171267;28;20494;-66
2023/09/11 06:22:16;;;;;;;6.70;5.07;;;21.80;1.00;;;;;;5150688;28;20539;-63
2023/09/11 06:25:07;;;;;;;8.38;4.85;;;22.10;1.00;;;;;;5171655;28;20141;-65
2023/09/11 06:27:39;;;;;;;5.95;4.57;;;22.30;1.00;;;;;;5173659;28;20037;-64
2023/09/11 06:30:10;;;;;;;9.98;5.50;;;22.40;1.00;;;;;;5174218;28;20041;-61
2023/09/11 06:32:42;;;;;;;5.50;4.53;;;22.40;1.00;;;;;;5157339;28;20045;-66
2023/09/11 06:35:13;;;;;;;6.60;5.30;;;22.50;1.00;;;;;;5188129;28;20216;-66
2023/09/11 06:37:44;;;;;;;6.72;5.78;;;22.70;1.00;;;;;;5177651;28;20336;-64
2023/09/11 06:40:16;;;;;;;7.10;5.15;;;22.90;1.00;;;;;;5173916;28;20081;-65
2023/09/11 06:42:47;;;;;;;8.10;6.03;;;23.00;1.00;;;;;;5171644;28;20049;-66
2023/09/11 06:45:18;;;;;;;7.63;5.43;;;22.50;1.00;;;;;;5167029;28;20034;-65
2023/09/11 06:47:50;;;;;;;5.82;5.18;;;22.10;1.00;;;;;;5175352;28;20037;-66
2023/09/11 06:50:21;;;;;;;6.30;5.00;;;22.40;1.00;;;;;;5167035;28;20038;-66
2023/09/11 06:52:53;;;;;;;9.90;5.45;;;22.60;1.00;;;;;;5175133;28;20036;-64
2023/09/11 06:55:24;;;;;;;9.32;5.95;;;23.00;99.90;;;;;;5178066;28;20049;-65
2023/09/11 06:58:00;;;;;;;7.03;5.78;;;23.40;1.00;;;;;;5174251;28;20234;-64
2023/09/11 07:00:31;;;;;;;8.32;5.18;;;23.40;1.00;;;;;;5156340;28;20322;-64
2023/09/11 07:03:05;;;;;;;9.07;5.97;;;23.80;1.00;;;;;;5173967;28;20235;-63
2023/09/11 07:05:38;;;;;;;7.70;5.65;;;23.70;1.00;;;;;;5177412;28;20346;-63
2023/09/11 07:08:10;;;;;;;7.78;5.70;;;23.80;99.90;;;;;;5177087;28;20349;-64
2023/09/11 07:10:41;;;;;;;7.05;5.50;;;23.90;99.90;;;;;;5174503;28;20034;-64
2023/09/11 07:13:13;;;;;;;8.25;5.90;;;24.30;1.00;;;;;;5178965;28;20246;-65
2023/09/11 07:15:58;;;;;;;8.38;5.78;;;24.30;1.00;;;;;;5175888;28;20034;-64
2023/09/11 07:18:31;;;;;;;6.88;5.32;;;24.50;1.00;;;;;;5192855;28;20048;-64
2023/09/11 07:21:05;;;;;;;9.82;6.20;;;24.60;1.00;;;;;;5177405;28;20026;-62
2023/09/11 07:23:37;;;;;;;8.77;5.95;;;24.80;1.00;;;;;;5183018;28;20030;-62
2023/09/11 07:26:10;;;;;;;8.40;5.95;;;24.30;1.00;;;;;;5156827;28;20045;-65
2023/09/11 07:28:59;;;;;;;9.00;6.15;;;24.70;1.00;;;;;;5186302;28;20040;-63
2023/09/11 07:31:32;;;;;;;8.93;5.82;;;24.70;1.00;;;;;;5179515;28;20025;-64
2023/09/11 07:34:03;;;;;;;7.80;5.28;;;24.80;1.00;;;;;;5159169;28;20037;-63
2023/09/11 07:36:35;;;;;;;6.68;5.15;;;24.90;1.00;;;;;;5175882;28;20481;-66
2023/09/11 07:39:06;;;;;;;6.28;5.60;;;24.90;1.00;;;;;;5175052;28;20100;-64
2023/09/11 07:41:37;;;;;;;6.50;5.55;;;25.20;1.00;;;;;;5170240;28;20045;-66
2023/09/11 07:44:08;;;;;;;7.43;6.07;;;25.10;1.00;;;;;;5188638;28;20262;-65
2023/09/11 07:46:39;;;;;;;10.18;5.47;;;25.40;99.90;;;;;;5189104;28;20227;-64
2023/09/11 07:49:13;;;;;;;9.90;5.80;;;25.90;1.00;;;;;;5177636;28;20191;-64
2023/09/11 07:51:45;;;;;;;6.38;5.60;;;26.10;99.90;;;;;;5172334;28;20033;-65
2023/09/11 07:54:16;;;;;;;9.40;5.50;;;26.20;1.00;;;;;;5149137;28;20369;-63
2023/09/11 07:56:47;;;;;;;6.63;5.18;;;25.90;1.00;;;;;;5172843;28;20220;-66
2023/09/11 07:59:22;;;;;;;8.13;5.75;;;26.00;1.00;;;;;;5171657;28;20021;-63
2023/09/11 08:01:56;;;;;;;10.73;5.43;;;26.50;1.00;;;;;;5169785;28;20451;-64
2023/09/11 08:04:27;;;;;;;8.15;5.93;;;26.50;99.90;;;;;;5159475;28;20238;-63
2023/09/11 08:06:59;;;;;;;7.40;5.30;;;26.50;1.00;;;;;;5158342;28;20046;-63
2023/09/11 08:09:30;;;;;;;8.13;6.20;;;26.40;61.90;;;;;;5174972;28;20026;-61
2023/09/11 08:12:01;;;;;;;9.13;6.13;;;26.70;21.20;;;;;;5178020;28;20032;-64
2023/09/11 08:14:38;;;;;;;8.23;5.78;;;26.60;1.00;;;;;;5157866;28;20022;-64
2023/09/11 08:17:10;;;;;;;9.73;5.80;;;27.10;99.90;;;;;;5187955;28;20037;-61
2023/09/11 08:19:43;;;;;;;8.85;6.07;;;27.00;99.90;;;;;;5174403;28;20026;-63
2023/09/11 08:22:14;;;;;;;8.88;6.35;;;27.20;1.00;;;;;;5175097;28;20546;-66
2023/09/11 08:24:46;;;;;;;9.30;5.78;;;27.30;99.90;;;;;;5175976;28;20033;-65
2023/09/11 08:27:18;;;;;;;8.18;5.85;;;26.90;58.50;;;;;;5159081;28;20037;-64
2023/09/11 08:29:49;;;;;;;8.88;5.82;;;27.30;99.90;;;;;;5142867;28;20176;-63
2023/09/11 08:32:21;;;;;;;9.95;6.18;;;27.30;29.20;;;;;;5171566;28;20199;-64
2023/09/11 08:34:52;;;;;;;7.82;5.50;;;27.40;99.90;;;;;;5158887;28;20392;-64
2023/09/11 08:37:26;;;;;;;6.80;5.28;;;27.70;99.90;;;;;;5176315;28;20055;-65
2023/09/11 08:40:03;;;;;;;6.70;5.50;;;27.80;97.40;;;;;;5159380;28;20033;-65
2023/09/11 08:42:34;;;;;;;7.53;5.97;;;27.70;1.00;;;;;;5158609;28;20038;-63
2023/09/11 08:45:06;;;;;;;9.48;6.05;;;27.50;99.90;;;;;;5169263;28;20030;-64
2023/09/11 08:47:42;;;;;;;8.50;6.22;;;28.10;99.90;;;;;;5174330;28;20038;-62
2023/09/11 08:50:16;;;;;;;10.32;6.65;;;28.50;1.00;;;;;;5189881;28;20029;-64
2023/09/11 08:52:52;;;;;;;7.50;6.03;;;28.40;99.90;;;;;;5158961;28;20041;-65
2023/09/11 08:55:25;;;;;;;10.77;6.28;;;28.70;97.30;;;;;;5174185;28;20266;-64
2023/09/11 08:58:03;;;;;;;7.63;5.93;;;28.20;1.00;;;;;;5174570;28;20345;-63
2023/09/11 09:00:37;;;;;;;10.15;5.63;;;28.20;99.90;;;;;;5154551;28;20044;-65
2023/09/11 09:03:12;;;;;;;7.43;5.40;;;28.20;1.00;;;;;;5158677;28;20036;-63
2023/09/11 09:05:44;;;;;;;6.18;5.47;;;28.70;1.00;;;;;;5174680;28;20109;-64
2023/09/11 09:08:16;;;;;;;7.95;4.78;;;29.00;1.00;;;;;;5160926;28;20370;-62
2023/09/11 09:10:48;;;;;;;7.55;5.38;;;29.40;99.90;;;;;;5182562;28;20040;-64
2023/09/11 09:13:19;;;;;;;9.93;5.03;;;29.20;1.00;;;;;;5151058;28;20026;-64
2023/09/11 09:15:51;;;;;;;10.73;4.90;;;29.20;99.90;;;;;;5168582;28;20041;-63
2023/09/11 09:18:22;;;;;;;7.40;5.90;;;29.80;99.90;;;;;;5159653;28;20038;-64
2023/09/11 09:20:55;;;;;;;8.23;5.70;;;30.00;99.90;;;;;;5179692;28;20037;-61
2023/09/11 09:23:35;;;;;;;13.60;5.78;;;29.40;1.00;;;;;;5173988;28;20046;-62
2023/09/11 09:26:08;;;;;;;9.63;5.53;;;29.50;1.00;;;;;;5161752;28;20038;-64
2023/09/11 09:28:44;;;;;;;6.35;5.15;;;29.70;99.90;;;;;;5162607;28;20039;-65
2023/09/11 09:31:25;;;;;;;7.78;5.40;;;29.60;99.90;;;;;;5168851;28;20056;-63
2023/09/11 09:33:56;;;;;;;11.27;6.13;;;30.20;99.90;;;;;;5171533;28;20270;-65
2023/09/11 09:36:27;;;;;;;10.00;5.18;;;30.80;99.90;;;;;;5191038;28;20044;-64
2023/09/11 09:38:58;;;;;;;9.05;5.22;;;31.00;99.90;;;;;;5176333;28;20242;-64
2023/09/11 09:41:30;;;;;;;9.77;5.07;;;31.50;99.90;;;;;;5194470;28;20033;-64
2023/09/11 09:44:04;;;;;;;9.35;5.78;;;31.40;1.00;;;;;;5178381;28;20038;-63
2023/09/11 09:46:41;;;;;;;12.20;6.25;;;31.60;1.00;;;;;;5175069;28;20346;-63
2023/09/11 09:49:14;;;;;;;7.63;6.03;;;31.00;1.00;;;;;;5161733;28;20036;-64
2023/09/11 09:51:48;;;;;;;7.85;5.35;;;30.90;1.00;;;;;;5178253;28;20034;-62
2023/09/11 09:54:19;;;;;;;;;;;31.60;1.00;;;;;;5177780;28;20030;-62
2023/09/11 09:56:50;;;;;;;8.25;5.97;;;32.00;1.00;;;;;;5179653;28;19909;-66
2023/09/11 09:59:26;;;;;;;8.25;5.25;;;31.50;1.00;;;;;;5177885;28;20580;-65
2023/09/11 10:02:03;;;;;;;8.55;5.03;;;30.90;1.00;;;;;;5173034;28;20307;-60
2023/09/11 10:04:37;;;;;;;5.95;5.30;;;31.50;1.00;;;;;;5178434;28;20064;-64
2023/09/11 10:07:08;;;;;;;;;;;32.40;1.00;;;;;;5176821;28;20292;-64
2023/09/11 10:09:44;;;;;;;7.78;5.43;;;32.60;1.00;;;;;;5181042;28;19906;-65
2023/09/11 10:12:17;;;;;;;6.82;5.70;;;33.00;1.00;;;;;;5173824;28;20034;-65
2023/09/11 10:14:49;;;;;;;6.67;5.70;;;33.20;42.50;;;;;;5161247;28;20049;-64
2023/09/11 10:17:20;;;;;;;7.20;5.13;;;33.00;34.00;;;;;;5153608;28;20299;-64
2023/09/11 10:19:53;;;;;;;10.57;5.28;;;34.00;1.00;;;;;;5142997;28;20061;-64
2023/09/11 10:22:24;;;;;;;6.32;5.35;;;34.60;1.00;;;;;;5161337;28;20048;-64
2023/09/11 10:24:55;;;;;;;6.80;5.18;;;34.80;1.00;;;;;;5173734;28;20043;-62
2023/09/11 10:27:27;;;;;;;7.05;4.53;;;34.70;1.00;;;;;;5167464;28;20048;-63
2023/09/11 10:30:04;;;;;;;6.80;5.07;;;36.10;1.00;;;;;;5161648;28;20029;-64
2023/09/11 10:32:55;;;;;;;6.90;5.15;;;37.40;99.90;;;;;;5176318;28;20029;-64
2023/09/11 10:35:32;;;;;;;6.70;5.38;;;37.70;99.90;;;;;;5160804;28;20260;-61
2023/09/11 10:38:07;;;;;;;6.68;4.95;;;37.90;23.50;;;;;;5170876;28;20350;-64
2023/09/11 10:40:39;;;;;;;6.78;4.78;;;38.20;1.00;;;;;;5150559;28;20259;-62
2023/09/11 10:43:11;;;;;;;6.20;5.60;;;38.70;1.00;;;;;;5169261;28;20297;-62
2023/09/11 10:45:44;;;;;;;6.20;5.35;;;38.70;1.00;;;;;;5161081;28;20037;-61
2023/09/11 10:48:33;;;;;;;7.32;5.63;;;39.00;1.00;;;;;;5173340;28;20034;-62
2023/09/11 10:51:08;;;;;;;7.20;5.25;;;38.30;1.00;;;;;;5161786;28;20036;-64
2023/09/11 10:53:45;;;;;;;9.38;5.53;;;38.10;1.00;;;;;;5177277;28;20333;-62
2023/09/11 10:56:17;;;;;;;5.18;4.20;;;38.10;1.00;;;;;;5177394;28;20029;-62
2023/09/11 10:58:57;;;;;;;13.55;5.70;;;38.90;1.00;;;;;;5177951;28;20321;-64
2023/09/11 11:01:28;;;;;;;5.57;5.05;;;39.00;1.00;;;;;;5156922;28;20249;-63
2023/09/11 11:04:04;;;;;;;6.20;4.93;;;38.90;1.00;;;;;;5175457;28;20040;-64
2023/09/11 11:06:36;;;;;;;7.18;4.80;;;39.60;1.00;;;;;;5187574;28;20036;-64
2023/09/11 11:09:28;;;;;;;5.72;4.88;;;40.20;1.00;;;;;;5198906;28;20048;-64
2023/09/11 11:12:10;;;;;;;6.53;4.90;;;39.40;99.90;;;;;;5174687;28;20038;-64
2023/09/11 11:14:41;;;;;;;6.40;4.70;;;39.30;1.00;;;;;;5171012;28;20307;-65
2023/09/11 11:17:16;;;;;;;6.97;5.50;;;39.10;99.90;;;;;;5154668;28;20227;-65
2023/09/11 11:20:01;;;;;;;8.35;4.80;;;39.40;1.00;;;;;;5161231;28;20048;-64
2023/09/11 11:22:34;;;;;;;13.15;5.60;;;40.40;1.00;;;;;;5178054;28;20386;-63
2023/09/11 11:25:10;;;;;;;6.07;5.10;;;39.50;1.00;;;;;;5143152;28;20036;-65
2023/09/11 11:27:44;;;;;;;5.05;4.55;;;39.20;1.00;;;;;;5171290;28;20205;-64
2023/09/11 11:30:16;;;;;;;5.47;4.97;;;40.20;1.00;;;;;;5177552;28;20477;-64
2023/09/11 11:32:48;;;;;;;9.52;5.38;;;40.90;99.90;;;;;;5179644;28;20366;-65
2023/09/11 11:35:21;;;;;;;5.40;4.95;;;40.70;99.90;;;;;;5175678;28;20191;-63
2023/09/11 11:37:54;;;;;;;6.63;4.82;;;39.90;99.90;;;;;;5162406;28;20034;-65
2023/09/11 11:40:25;;;;;;;;;;;40.30;99.90;;;;;;5165065;28;20507;-64
2023/09/11 11:42:58;;;;;;;5.40;4.50;;;40.60;99.90;;;;;;5181957;28;19917;-62
2023/09/11 11:45:30;;;;;;;8.75;5.15;;;40.80;99.90;;;;;;5162603;28;20351;-65
2023/09/11 11:48:01;;;;;;;8.15;4.90;;;40.50;99.90;;;;;;5163958;28;20048;-65
2023/09/11 11:50:35;;;;;;;5.60;4.90;;;41.50;99.90;;;;;;5180475;28;20030;-63
2023/09/11 11:53:09;;;;;;;5.80;5.20;;;42.00;99.90;;;;;;5182606;28;20033;-65
2023/09/11 11:55:41;;;;;;;5.53;5.03;;;41.10;99.90;;;;;;5182925;28;20042;-62
2023/09/11 11:58:15;;;;;;;5.95;5.18;;;41.60;99.90;;;;;;5163488;28;20230;-64
2023/09/11 12:01:01;;;;;;;6.15;4.75;;;41.80;99.90;;;;;;5178688;28;20060;-63
2023/09/11 12:03:44;;;;;;;6.85;4.72;;;42.80;99.90;;;;;;5157714;28;20034;-62
2023/09/11 12:06:20;;;;;;;4.78;4.38;;;43.60;99.90;;;;;;5158584;28;20049;-62
2023/09/11 12:08:54;;;;;;;5.40;4.90;;;43.60;99.90;;;;;;5193065;28;20338;-63
2023/09/11 12:11:26;;;;;;;5.53;5.03;;;43.20;99.90;;;;;;5158932;28;20030;-63
2023/09/11 12:13:57;;;;;;;5.40;4.90;;;42.80;99.90;;;;;;5161181;28;20295;-64
2023/09/11 12:16:34;;;;;;;5.70;4.30;;;42.90;99.90;;;;;;5173736;28;20536;-63
2023/09/11 12:19:07;;;;;;;5.28;4.78;;;43.20;99.90;;;;;;5161169;28;20041;-65
2023/09/11 12:21:40;;;;;;;4.85;4.35;;;43.90;99.90;;;;;;5163431;28;20148;-65
2023/09/11 12:24:11;;;;;;;5.25;4.43;;;43.90;99.90;;;;;;5162093;28;20033;-65
2023/09/11 12:26:46;;;;;;;6.13;4.43;;;44.00;99.90;;;;;;5181139;28;20048;-64
2023/09/11 12:29:18;;;;;;;4.75;4.35;;;43.20;99.90;;;;;;5171730;28;20042;-64
2023/09/11 12:31:53;;;;;;;5.50;4.53;;;42.80;99.90;;;;;;5160929;28;20044;-64
2023/09/11 12:34:24;;;;;;;5.43;4.78;;;42.60;99.90;;;;;;5175386;28;20049;-63
2023/09/11 12:36:56;;;;;;;4.63;4.20;;;42.00;99.90;;;;;;5161432;28;20433;-65
2023/09/11 12:39:27;;;;;;;4.85;4.28;;;41.70;99.90;;;;;;5161748;28;20030;-64
2023/09/11 12:42:00;;;;;;;5.22;4.15;;;42.20;99.90;;;;;;5168790;28;20051;-63
2023/09/11 12:44:32;;;;;;;;;;;41.90;99.90;;;;;;5201411;28;20041;-66
2023/09/11 12:47:03;;;;;;;5.95;5.00;;;42.20;99.90;;;;;;5178481;28;20208;-66
2023/09/11 12:49:36;;;;;;;4.88;4.38;;;42.00;99.90;;;;;;5177931;28;20037;-66
2023/09/11 12:52:11;;;;;;;5.20;4.70;;;42.60;99.90;;;;;;5168919;28;20317;-62
2023/09/11 12:54:44;;;;;;;4.40;4.00;;;43.70;99.90;;;;;;5160917;28;20049;-64
2023/09/11 12:57:18;;;;;;;5.07;4.43;;;43.50;99.90;;;;;;5162294;28;20049;-66
2023/09/11 12:59:50;;;;;;;4.88;4.45;;;42.20;99.90;;;;;;5186966;28;20104;-65
2023/09/11 13:02:21;;;;;;;7.38;4.90;;;42.10;99.90;;;;;;5158841;28;20043;-66
2023/09/11 13:04:54;;;;;;;5.65;4.70;;;42.90;99.90;;;;;;5161917;28;20068;-64
2023/09/11 13:07:26;;;;;;;5.40;4.30;;;43.60;99.90;;;;;;5161709;28;20263;-65
2023/09/11 13:09:59;;;;;;;5.18;4.60;;;44.30;99.90;;;;;;5161998;28;20339;-64
2023/09/11 13:12:33;;;;;;;4.57;4.18;;;44.70;99.90;;;;;;5162319;28;20496;-65
2023/09/11 13:15:05;;;;;;;5.05;3.75;;;44.90;99.90;;;;;;5161543;28;20351;-64
2023/09/11 13:17:38;;;;;;;5.40;4.05;;;44.80;99.90;;;;;;5177870;28;20033;-65
2023/09/11 13:20:09;;;;;;;6.72;4.68;;;43.60;99.90;;;;;;5179791;28;20056;-65
2023/09/11 13:22:42;;;;;;;4.63;4.00;;;41.90;99.90;;;;;;5196156;28;20044;-62
2023/09/11 13:25:18;;;;;;;4.57;4.18;;;41.90;99.90;;;;;;5174572;28;20038;-64
2023/09/11 13:27:49;;;;;;;4.93;4.43;;;43.00;99.90;;;;;;5154268;28;20049;-64
2023/09/11 13:30:21;;;;;;;5.82;4.95;;;44.00;99.90;;;;;;5175838;28;20040;-65
2023/09/11 13:32:57;;;;;;;5.60;4.75;;;43.20;99.90;;;;;;5161626;28;20040;-62